KGON/GON METAR and TAF weather

Enter ICAO airport designator
Station Type Date Time Source
KGON METAR 2019/04/22 20:14 UTC NOAA

KGON 222014Z 04010KT 2 1/2SM RA BR BKN009 BKN021 OVC048 13/12 A2996 RMK AO2 P0007 T01330122


Station Type Date Time Source
KGON Decoded METAR 2019/04/22 20:14 UTC NOAA

GROTON/NEW LONDON AIRPORT , CT, United States (KGON) 41-20N 72-03W 3M
Apr 22, 2019 - 04:14 PM EDT / 2019.04.22 2014 UTC
Wind: from the NE (040 degrees) at 12 MPH (10 KT):0
Visibility: 2 1/2 mile(s):0
Sky conditions: overcast
Weather: rain; mist
Precipitation last hour: 0.07 inches
Temperature: 55.9 F (13.3 C)
Dew Point: 54.0 F (12.2 C)
Relative Humidity: 93%
Pressure (altimeter): 29.96 in. Hg (1014 hPa)
ob: KGON 222014Z 04010KT 2 1/2SM RA BR BKN009 BKN021 OVC048 13/12 A2996 RMK AO2 P0007 T01330122
cycle: 20

Station Type Date Time Source
KGON TAF 2019/04/22 20:33 UTC NOAA

TAF
AMD KGON 221931Z 2220/2318 02013G19KT 2SM -SHRA BR SCT015 BKN020
FM222100 02011G17KT 2SM -SHRA BR OVC015
TEMPO 2221/2224 OVC008
FM230000 01010KT 4SM -SHRA BR SCT005 OVC008
FM230500 35007KT P6SM SCT007 BKN010
FM231000 35007KT P6SM BKN020
FM231400 36008KT P6SM SCT020 BKN035

Example: see airport list